Terminal Aerodrome Forecast
Issued by NWS

Home | Current Version | Previous Version | Text Only | Print | Product List | Glossary On
Versions: 1 2 3 4 5 6 7 8 9 10 11 12 13 14 15
000
FTUS41 KPBZ 170540
TAFBVI
TAF
KBVI 170540Z 1706/1806 11003KT P6SM SCT250
     FM171600 18005KT P6SM BKN050
     FM172100 18005KT P6SM VCTS BKN035CB
     FM180200 22005KT 5SM -SHRA BR OVC035
      AMD NOT SKED TIL 171200=

USA.gov is the U.S. government's official web portal to all federal, state and local government web resources and services.